Siam, Ohio
Current Conditions -  °F | °C
As of 11:52 PM on Friday 19 Dec 2014 (Local Time) from KMFD Reporting Station
Overcast Overcast  
Wind Chill: 28°   Ceiling: 1800
Heat Index: 28°   Visibility: 10mi
Dew Point: 21°   Wind: 3mph
Humidity: 75%   Direction: 100°E
Pressure: 30.25"   Gusts: NA
Location:  41.0654°N, 82.876°W
Report Text: KMFD 200452Z 10003KT 10SM OVC018 M02/M06 A3025 RMK AO2 SLP258 T10221061 410171028
Loading
Personal Weather Stations






























Interactive Weather Map New forecast layout! Learn more

10-Day Weather Forecast

Advertisements
Track Severe Weather on mobile